sensor_id;sensor_type;location;lat;lon;timestamp;P1;durP1;ratioP1;P2;durP2;ratioP2
13868;SDS011;7004;48.206;16.402;2023-01-24T00:00:36;24.47;;;15.33;;
13868;SDS011;7004;48.206;16.402;2023-01-24T00:03:04;26.67;;;16.53;;
13868;SDS011;7004;48.206;16.402;2023-01-24T00:05:32;23.70;;;15.63;;
13868;SDS011;7004;48.206;16.402;2023-01-24T00:07:59;23.50;;;15.30;;
13868;SDS011;7004;48.206;16.402;2023-01-24T00:10:25;25.67;;;14.90;;
13868;SDS011;7004;48.206;16.402;2023-01-24T00:12:51;24.20;;;16.50;;
13868;SDS011;7004;48.206;16.402;2023-01-24T00:15:17;24.53;;;15.87;;
13868;SDS011;7004;48.206;16.402;2023-01-24T00:17:43;24.77;;;16.03;;
13868;SDS011;7004;48.206;16.402;2023-01-24T00:20:10;23.07;;;15.17;;
13868;SDS011;7004;48.206;16.402;2023-01-24T00:22:36;21.97;;;14.57;;
13868;SDS011;7004;48.206;16.402;2023-01-24T00:25:04;22.70;;;15.27;;
13868;SDS011;7004;48.206;16.402;2023-01-24T00:27:31;20.67;;;14.43;;
13868;SDS011;7004;48.206;16.402;2023-01-24T00:29:57;22.70;;;14.47;;
13868;SDS011;7004;48.206;16.402;2023-01-24T00:32:23;26.87;;;15.87;;
13868;SDS011;7004;48.206;16.402;2023-01-24T00:34:49;22.07;;;14.43;;
13868;SDS011;7004;48.206;16.402;2023-01-24T00:37:15;22.63;;;15.40;;
13868;SDS011;7004;48.206;16.402;2023-01-24T00:39:41;24.10;;;15.50;;
13868;SDS011;7004;48.206;16.402;2023-01-24T00:42:08;24.13;;;15.63;;
13868;SDS011;7004;48.206;16.402;2023-01-24T00:44:34;26.13;;;15.63;;
13868;SDS011;7004;48.206;16.402;2023-01-24T00:47:00;22.13;;;14.33;;
13868;SDS011;7004;48.206;16.402;2023-01-24T00:49:27;23.80;;;14.97;;
13868;SDS011;7004;48.206;16.402;2023-01-24T00:51:53;22.00;;;14.70;;
13868;SDS011;7004;48.206;16.402;2023-01-24T00:54:19;21.20;;;14.13;;
13868;SDS011;7004;48.206;16.402;2023-01-24T00:56:45;24.23;;;14.83;;
13868;SDS011;7004;48.206;16.402;2023-01-24T00:59:12;22.67;;;14.60;;
13868;SDS011;7004;48.206;16.402;2023-01-24T01:01:38;23.87;;;14.70;;
13868;SDS011;7004;48.206;16.402;2023-01-24T01:04:04;23.37;;;14.43;;
13868;SDS011;7004;48.206;16.402;2023-01-24T01:06:30;22.57;;;14.77;;
13868;SDS011;7004;48.206;16.402;2023-01-24T01:08:57;24.10;;;15.00;;
13868;SDS011;7004;48.206;16.402;2023-01-24T01:11:23;26.30;;;15.63;;
13868;SDS011;7004;48.206;16.402;2023-01-24T01:13:49;23.67;;;15.00;;
13868;SDS011;7004;48.206;16.402;2023-01-24T01:16:19;22.57;;;13.73;;
13868;SDS011;7004;48.206;16.402;2023-01-24T01:18:46;20.73;;;14.23;;
13868;SDS011;7004;48.206;16.402;2023-01-24T01:21:13;22.47;;;14.77;;
13868;SDS011;7004;48.206;16.402;2023-01-24T01:23:43;21.30;;;13.83;;
13868;SDS011;7004;48.206;16.402;2023-01-24T01:26:13;26.27;;;15.23;;
13868;SDS011;7004;48.206;16.402;2023-01-24T01:28:45;24.93;;;14.47;;
13868;SDS011;7004;48.206;16.402;2023-01-24T01:31:11;24.80;;;13.77;;
13868;SDS011;7004;48.206;16.402;2023-01-24T01:33:37;22.47;;;14.33;;
13868;SDS011;7004;48.206;16.402;2023-01-24T01:36:04;21.40;;;13.77;;
13868;SDS011;7004;48.206;16.402;2023-01-24T01:38:30;21.40;;;13.60;;
13868;SDS011;7004;48.206;16.402;2023-01-24T01:40:57;21.30;;;13.70;;
13868;SDS011;7004;48.206;16.402;2023-01-24T01:43:25;21.90;;;14.17;;
13868;SDS011;7004;48.206;16.402;2023-01-24T01:45:55;22.67;;;13.90;;
13868;SDS011;7004;48.206;16.402;2023-01-24T01:48:49;20.37;;;13.90;;
13868;SDS011;7004;48.206;16.402;2023-01-24T01:51:41;21.93;;;14.23;;
13868;SDS011;7004;48.206;16.402;2023-01-24T01:54:15;23.37;;;14.40;;
13868;SDS011;7004;48.206;16.402;2023-01-24T01:59:39;21.27;;;13.17;;
13868;SDS011;7004;48.206;16.402;2023-01-24T02:02:20;22.07;;;15.33;;
13868;SDS011;7004;48.206;16.402;2023-01-24T02:04:49;24.23;;;14.60;;
13868;SDS011;7004;48.206;16.402;2023-01-24T02:07:46;25.80;;;14.47;;
13868;SDS011;7004;48.206;16.402;2023-01-24T02:10:24;23.33;;;14.40;;
13868;SDS011;7004;48.206;16.402;2023-01-24T02:13:12;20.77;;;13.57;;
13868;SDS011;7004;48.206;16.402;2023-01-24T02:15:38;21.30;;;14.23;;
13868;SDS011;7004;48.206;16.402;2023-01-24T02:18:23;21.07;;;13.67;;
13868;SDS011;7004;48.206;16.402;2023-01-24T02:20:49;22.33;;;13.93;;
13868;SDS011;7004;48.206;16.402;2023-01-24T02:26:07;20.20;;;14.00;;
13868;SDS011;7004;48.206;16.402;2023-01-24T02:28:40;22.03;;;14.10;;
13868;SDS011;7004;48.206;16.402;2023-01-24T02:31:25;21.70;;;13.97;;
13868;SDS011;7004;48.206;16.402;2023-01-24T02:33:51;21.30;;;14.00;;
13868;SDS011;7004;48.206;16.402;2023-01-24T02:36:25;22.63;;;13.80;;
13868;SDS011;7004;48.206;16.402;2023-01-24T02:39:11;19.53;;;13.27;;
13868;SDS011;7004;48.206;16.402;2023-01-24T02:41:48;20.43;;;13.83;;
13868;SDS011;7004;48.206;16.402;2023-01-24T02:44:21;21.97;;;14.13;;
13868;SDS011;7004;48.206;16.402;2023-01-24T02:46:58;19.77;;;13.80;;
13868;SDS011;7004;48.206;16.402;2023-01-24T02:49:24;23.60;;;14.87;;
13868;SDS011;7004;48.206;16.402;2023-01-24T02:51:50;20.50;;;13.57;;
13868;SDS011;7004;48.206;16.402;2023-01-24T02:54:36;19.73;;;12.73;;
13868;SDS011;7004;48.206;16.402;2023-01-24T02:57:03;22.07;;;13.37;;
13868;SDS011;7004;48.206;16.402;2023-01-24T02:59:49;22.23;;;14.43;;
13868;SDS011;7004;48.206;16.402;2023-01-24T03:02:16;20.83;;;13.53;;
13868;SDS011;7004;48.206;16.402;2023-01-24T03:04:43;20.00;;;13.63;;
13868;SDS011;7004;48.206;16.402;2023-01-24T03:07:09;22.00;;;14.57;;
13868;SDS011;7004;48.206;16.402;2023-01-24T03:09:35;22.17;;;13.90;;
13868;SDS011;7004;48.206;16.402;2023-01-24T03:12:06;20.20;;;13.30;;
13868;SDS011;7004;48.206;16.402;2023-01-24T03:14:52;24.27;;;15.03;;
13868;SDS011;7004;48.206;16.402;2023-01-24T03:17:37;22.07;;;13.90;;
13868;SDS011;7004;48.206;16.402;2023-01-24T03:20:22;21.23;;;14.20;;
13868;SDS011;7004;48.206;16.402;2023-01-24T03:23:07;21.13;;;14.33;;
13868;SDS011;7004;48.206;16.402;2023-01-24T03:25:56;20.67;;;14.23;;
13868;SDS011;7004;48.206;16.402;2023-01-24T03:28:42;22.87;;;13.83;;
13868;SDS011;7004;48.206;16.402;2023-01-24T03:31:27;21.33;;;14.07;;
13868;SDS011;7004;48.206;16.402;2023-01-24T03:34:12;24.53;;;14.97;;
13868;SDS011;7004;48.206;16.402;2023-01-24T03:36:58;21.03;;;13.80;;
13868;SDS011;7004;48.206;16.402;2023-01-24T03:39:25;24.43;;;14.37;;
13868;SDS011;7004;48.206;16.402;2023-01-24T03:42:10;22.07;;;14.63;;
13868;SDS011;7004;48.206;16.402;2023-01-24T03:44:37;21.90;;;14.33;;
13868;SDS011;7004;48.206;16.402;2023-01-24T03:47:03;21.70;;;13.87;;
13868;SDS011;7004;48.206;16.402;2023-01-24T03:49:29;24.83;;;14.87;;
13868;SDS011;7004;48.206;16.402;2023-01-24T03:52:14;25.40;;;15.47;;
13868;SDS011;7004;48.206;16.402;2023-01-24T03:54:51;23.37;;;14.60;;
13868;SDS011;7004;48.206;16.402;2023-01-24T03:57:17;23.70;;;14.60;;
13868;SDS011;7004;48.206;16.402;2023-01-24T03:59:43;22.73;;;14.17;;
13868;SDS011;7004;48.206;16.402;2023-01-24T04:02:09;23.63;;;15.20;;
13868;SDS011;7004;48.206;16.402;2023-01-24T04:04:35;23.47;;;15.17;;
13868;SDS011;7004;48.206;16.402;2023-01-24T04:07:20;23.00;;;14.33;;
13868;SDS011;7004;48.206;16.402;2023-01-24T04:09:46;22.17;;;14.63;;
13868;SDS011;7004;48.206;16.402;2023-01-24T04:12:12;25.90;;;16.13;;
13868;SDS011;7004;48.206;16.402;2023-01-24T04:14:38;25.90;;;16.03;;
13868;SDS011;7004;48.206;16.402;2023-01-24T04:17:05;25.80;;;15.73;;
13868;SDS011;7004;48.206;16.402;2023-01-24T04:19:31;24.43;;;15.20;;
13868;SDS011;7004;48.206;16.402;2023-01-24T04:21:57;24.40;;;14.90;;
13868;SDS011;7004;48.206;16.402;2023-01-24T04:24:23;25.17;;;16.03;;
13868;SDS011;7004;48.206;16.402;2023-01-24T04:26:49;26.20;;;16.17;;
13868;SDS011;7004;48.206;16.402;2023-01-24T04:29:15;24.97;;;15.07;;
13868;SDS011;7004;48.206;16.402;2023-01-24T04:31:42;24.63;;;16.13;;
13868;SDS011;7004;48.206;16.402;2023-01-24T04:34:08;25.73;;;16.43;;
13868;SDS011;7004;48.206;16.402;2023-01-24T04:36:34;27.83;;;16.77;;
13868;SDS011;7004;48.206;16.402;2023-01-24T04:39:00;27.17;;;16.57;;
13868;SDS011;7004;48.206;16.402;2023-01-24T04:41:26;25.60;;;15.70;;
13868;SDS011;7004;48.206;16.402;2023-01-24T04:43:52;26.27;;;17.10;;
13868;SDS011;7004;48.206;16.402;2023-01-24T04:46:18;25.83;;;17.23;;
13868;SDS011;7004;48.206;16.402;2023-01-24T04:48:44;30.23;;;17.23;;
13868;SDS011;7004;48.206;16.402;2023-01-24T04:51:11;26.83;;;17.20;;
13868;SDS011;7004;48.206;16.402;2023-01-24T04:53:37;27.07;;;16.77;;
13868;SDS011;7004;48.206;16.402;2023-01-24T04:56:04;28.43;;;16.47;;
13868;SDS011;7004;48.206;16.402;2023-01-24T04:58:31;26.07;;;17.30;;
13868;SDS011;7004;48.206;16.402;2023-01-24T05:00:59;28.60;;;17.17;;
13868;SDS011;7004;48.206;16.402;2023-01-24T05:03:27;23.50;;;15.40;;
13868;SDS011;7004;48.206;16.402;2023-01-24T05:05:53;28.57;;;17.20;;
13868;SDS011;7004;48.206;16.402;2023-01-24T05:08:20;30.33;;;17.87;;
13868;SDS011;7004;48.206;16.402;2023-01-24T05:10:47;28.20;;;17.23;;
13868;SDS011;7004;48.206;16.402;2023-01-24T05:13:13;28.20;;;17.57;;
13868;SDS011;7004;48.206;16.402;2023-01-24T05:15:49;30.20;;;17.77;;
13868;SDS011;7004;48.206;16.402;2023-01-24T05:18:16;30.13;;;17.67;;
13868;SDS011;7004;48.206;16.402;2023-01-24T05:20:43;28.17;;;17.30;;
13868;SDS011;7004;48.206;16.402;2023-01-24T05:23:10;28.47;;;17.80;;
13868;SDS011;7004;48.206;16.402;2023-01-24T05:25:36;29.30;;;17.63;;
13868;SDS011;7004;48.206;16.402;2023-01-24T05:28:02;28.77;;;18.33;;
13868;SDS011;7004;48.206;16.402;2023-01-24T05:30:28;30.77;;;18.93;;
13868;SDS011;7004;48.206;16.402;2023-01-24T05:32:58;34.20;;;19.17;;
13868;SDS011;7004;48.206;16.402;2023-01-24T05:35:24;31.07;;;18.83;;
13868;SDS011;7004;48.206;16.402;2023-01-24T05:37:50;32.77;;;18.30;;
13868;SDS011;7004;48.206;16.402;2023-01-24T05:40:16;32.13;;;20.20;;
13868;SDS011;7004;48.206;16.402;2023-01-24T05:42:43;31.70;;;19.50;;
13868;SDS011;7004;48.206;16.402;2023-01-24T05:45:09;32.23;;;19.30;;
13868;SDS011;7004;48.206;16.402;2023-01-24T05:47:36;29.53;;;20.03;;
13868;SDS011;7004;48.206;16.402;2023-01-24T05:50:02;33.20;;;19.67;;
13868;SDS011;7004;48.206;16.402;2023-01-24T05:52:28;29.83;;;19.33;;
13868;SDS011;7004;48.206;16.402;2023-01-24T05:54:55;30.73;;;18.93;;
13868;SDS011;7004;48.206;16.402;2023-01-24T05:57:21;35.00;;;20.60;;
13868;SDS011;7004;48.206;16.402;2023-01-24T05:59:47;36.73;;;19.93;;
13868;SDS011;7004;48.206;16.402;2023-01-24T06:02:13;31.57;;;19.73;;
13868;SDS011;7004;48.206;16.402;2023-01-24T06:04:39;32.13;;;19.43;;
13868;SDS011;7004;48.206;16.402;2023-01-24T06:07:05;32.50;;;19.03;;
13868;SDS011;7004;48.206;16.402;2023-01-24T06:09:32;32.93;;;18.93;;
13868;SDS011;7004;48.206;16.402;2023-01-24T06:11:58;32.53;;;19.70;;
13868;SDS011;7004;48.206;16.402;2023-01-24T06:14:24;31.07;;;19.03;;
13868;SDS011;7004;48.206;16.402;2023-01-24T06:16:50;30.23;;;18.80;;
13868;SDS011;7004;48.206;16.402;2023-01-24T06:19:16;34.17;;;20.80;;
13868;SDS011;7004;48.206;16.402;2023-01-24T06:24:21;32.77;;;19.93;;
13868;SDS011;7004;48.206;16.402;2023-01-24T06:26:50;36.33;;;20.60;;
13868;SDS011;7004;48.206;16.402;2023-01-24T06:29:18;34.50;;;19.60;;
13868;SDS011;7004;48.206;16.402;2023-01-24T06:34:37;37.20;;;21.90;;
13868;SDS011;7004;48.206;16.402;2023-01-24T06:37:49;38.37;;;21.47;;
13868;SDS011;7004;48.206;16.402;2023-01-24T06:40:18;37.27;;;20.67;;
13868;SDS011;7004;48.206;16.402;2023-01-24T06:42:49;36.87;;;20.53;;
13868;SDS011;7004;48.206;16.402;2023-01-24T06:45:17;35.00;;;20.73;;
13868;SDS011;7004;48.206;16.402;2023-01-24T06:47:43;37.07;;;22.27;;
13868;SDS011;7004;48.206;16.402;2023-01-24T06:50:13;34.27;;;20.27;;
13868;SDS011;7004;48.206;16.402;2023-01-24T06:52:46;36.47;;;21.13;;
13868;SDS011;7004;48.206;16.402;2023-01-24T06:55:13;35.57;;;20.03;;
13868;SDS011;7004;48.206;16.402;2023-01-24T06:57:40;35.73;;;19.63;;
13868;SDS011;7004;48.206;16.402;2023-01-24T07:00:06;35.70;;;20.10;;
13868;SDS011;7004;48.206;16.402;2023-01-24T07:02:33;33.70;;;21.00;;
13868;SDS011;7004;48.206;16.402;2023-01-24T07:05:00;35.23;;;20.77;;
13868;SDS011;7004;48.206;16.402;2023-01-24T07:07:26;33.67;;;19.97;;
13868;SDS011;7004;48.206;16.402;2023-01-24T07:09:52;41.20;;;22.13;;
13868;SDS011;7004;48.206;16.402;2023-01-24T07:12:18;39.40;;;23.23;;
13868;SDS011;7004;48.206;16.402;2023-01-24T07:14:44;37.27;;;20.87;;
13868;SDS011;7004;48.206;16.402;2023-01-24T07:17:11;36.90;;;21.70;;
13868;SDS011;7004;48.206;16.402;2023-01-24T07:19:37;37.13;;;22.23;;
13868;SDS011;7004;48.206;16.402;2023-01-24T07:22:04;40.50;;;21.80;;
13868;SDS011;7004;48.206;16.402;2023-01-24T07:24:30;34.70;;;21.03;;
13868;SDS011;7004;48.206;16.402;2023-01-24T07:26:57;41.30;;;21.53;;
13868;SDS011;7004;48.206;16.402;2023-01-24T07:29:24;37.40;;;22.17;;
13868;SDS011;7004;48.206;16.402;2023-01-24T07:31:50;38.03;;;22.83;;
13868;SDS011;7004;48.206;16.402;2023-01-24T07:34:18;40.03;;;23.53;;
13868;SDS011;7004;48.206;16.402;2023-01-24T07:36:44;35.03;;;20.90;;
13868;SDS011;7004;48.206;16.402;2023-01-24T07:39:11;42.93;;;23.20;;
13868;SDS011;7004;48.206;16.402;2023-01-24T07:41:39;38.70;;;22.20;;
13868;SDS011;7004;48.206;16.402;2023-01-24T07:44:07;40.77;;;22.50;;
13868;SDS011;7004;48.206;16.402;2023-01-24T07:46:34;40.37;;;23.40;;
13868;SDS011;7004;48.206;16.402;2023-01-24T07:49:01;39.43;;;22.43;;
13868;SDS011;7004;48.206;16.402;2023-01-24T07:51:28;37.00;;;22.80;;
13868;SDS011;7004;48.206;16.402;2023-01-24T07:53:54;44.63;;;23.13;;
13868;SDS011;7004;48.206;16.402;2023-01-24T07:56:20;40.50;;;22.70;;
13868;SDS011;7004;48.206;16.402;2023-01-24T07:58:46;36.27;;;21.77;;
13868;SDS011;7004;48.206;16.402;2023-01-24T08:01:16;39.17;;;23.80;;
13868;SDS011;7004;48.206;16.402;2023-01-24T08:03:44;38.20;;;22.30;;
13868;SDS011;7004;48.206;16.402;2023-01-24T08:06:10;37.60;;;22.10;;
13868;SDS011;7004;48.206;16.402;2023-01-24T08:08:36;37.43;;;22.47;;
13868;SDS011;7004;48.206;16.402;2023-01-24T08:11:05;39.13;;;23.23;;
13868;SDS011;7004;48.206;16.402;2023-01-24T08:13:31;39.30;;;22.50;;
13868;SDS011;7004;48.206;16.402;2023-01-24T08:15:59;39.43;;;22.87;;
13868;SDS011;7004;48.206;16.402;2023-01-24T08:18:26;35.53;;;20.57;;
13868;SDS011;7004;48.206;16.402;2023-01-24T08:20:55;38.70;;;21.63;;
13868;SDS011;7004;48.206;16.402;2023-01-24T08:23:22;41.00;;;23.00;;
13868;SDS011;7004;48.206;16.402;2023-01-24T08:25:48;37.50;;;21.17;;
13868;SDS011;7004;48.206;16.402;2023-01-24T08:28:14;44.37;;;23.43;;
13868;SDS011;7004;48.206;16.402;2023-01-24T08:30:40;38.87;;;23.43;;
13868;SDS011;7004;48.206;16.402;2023-01-24T08:33:07;40.83;;;22.03;;
13868;SDS011;7004;48.206;16.402;2023-01-24T08:35:38;40.03;;;23.50;;
13868;SDS011;7004;48.206;16.402;2023-01-24T08:38:04;38.80;;;23.50;;
13868;SDS011;7004;48.206;16.402;2023-01-24T08:40:31;38.97;;;22.13;;
13868;SDS011;7004;48.206;16.402;2023-01-24T08:42:58;38.77;;;22.53;;
13868;SDS011;7004;48.206;16.402;2023-01-24T08:45:26;42.37;;;24.60;;
13868;SDS011;7004;48.206;16.402;2023-01-24T08:47:53;38.67;;;23.20;;
13868;SDS011;7004;48.206;16.402;2023-01-24T08:50:19;41.93;;;24.53;;
13868;SDS011;7004;48.206;16.402;2023-01-24T08:52:46;40.43;;;23.67;;
13868;SDS011;7004;48.206;16.402;2023-01-24T08:55:13;44.63;;;24.13;;
13868;SDS011;7004;48.206;16.402;2023-01-24T08:57:40;40.00;;;23.20;;
13868;SDS011;7004;48.206;16.402;2023-01-24T09:00:06;41.13;;;22.93;;
13868;SDS011;7004;48.206;16.402;2023-01-24T09:02:33;41.73;;;23.20;;
13868;SDS011;7004;48.206;16.402;2023-01-24T09:05:03;48.23;;;23.17;;
13868;SDS011;7004;48.206;16.402;2023-01-24T09:07:33;43.00;;;23.60;;
13868;SDS011;7004;48.206;16.402;2023-01-24T09:10:05;40.70;;;23.20;;
13868;SDS011;7004;48.206;16.402;2023-01-24T09:12:33;39.67;;;22.47;;
13868;SDS011;7004;48.206;16.402;2023-01-24T09:14:59;38.27;;;22.10;;
13868;SDS011;7004;48.206;16.402;2023-01-24T09:17:25;39.57;;;22.57;;
13868;SDS011;7004;48.206;16.402;2023-01-24T09:19:51;37.87;;;22.70;;
13868;SDS011;7004;48.206;16.402;2023-01-24T09:22:18;43.03;;;23.93;;
13868;SDS011;7004;48.206;16.402;2023-01-24T09:24:44;43.53;;;23.40;;
13868;SDS011;7004;48.206;16.402;2023-01-24T09:27:10;39.53;;;23.80;;
13868;SDS011;7004;48.206;16.402;2023-01-24T09:29:36;42.93;;;23.93;;
13868;SDS011;7004;48.206;16.402;2023-01-24T09:32:03;42.70;;;24.47;;
13868;SDS011;7004;48.206;16.402;2023-01-24T09:34:29;39.47;;;23.70;;
13868;SDS011;7004;48.206;16.402;2023-01-24T09:36:55;38.10;;;23.00;;
13868;SDS011;7004;48.206;16.402;2023-01-24T09:39:21;39.70;;;23.20;;
13868;SDS011;7004;48.206;16.402;2023-01-24T09:50:17;38.63;;;23.00;;
13868;SDS011;7004;48.206;16.402;2023-01-24T09:52:55;40.63;;;22.67;;
13868;SDS011;7004;48.206;16.402;2023-01-24T09:58:04;36.60;;;22.40;;
13868;SDS011;7004;48.206;16.402;2023-01-24T10:00:44;41.13;;;22.97;;
13868;SDS011;7004;48.206;16.402;2023-01-24T10:03:17;43.33;;;22.50;;
13868;SDS011;7004;48.206;16.402;2023-01-24T10:05:50;33.57;;;21.33;;
13868;SDS011;7004;48.206;16.402;2023-01-24T10:11:32;40.17;;;23.53;;
13868;SDS011;7004;48.206;16.402;2023-01-24T10:14:17;40.73;;;23.00;;
13868;SDS011;7004;48.206;16.402;2023-01-24T10:25:36;37.70;;;21.87;;
13868;SDS011;7004;48.206;16.402;2023-01-24T10:28:37;39.90;;;21.53;;
13868;SDS011;7004;48.206;16.402;2023-01-24T10:31:09;39.27;;;22.10;;
13868;SDS011;7004;48.206;16.402;2023-01-24T10:33:58;39.10;;;22.70;;
13868;SDS011;7004;48.206;16.402;2023-01-24T10:36:51;36.20;;;21.43;;
13868;SDS011;7004;48.206;16.402;2023-01-24T10:39:36;33.83;;;21.57;;
13868;SDS011;7004;48.206;16.402;2023-01-24T10:42:22;36.47;;;21.23;;
13868;SDS011;7004;48.206;16.402;2023-01-24T10:45:00;35.13;;;20.87;;
13868;SDS011;7004;48.206;16.402;2023-01-24T10:47:50;34.20;;;20.50;;
13868;SDS011;7004;48.206;16.402;2023-01-24T10:50:34;37.10;;;21.67;;
13868;SDS011;7004;48.206;16.402;2023-01-24T10:53:14;34.13;;;20.70;;
13868;SDS011;7004;48.206;16.402;2023-01-24T10:55:58;34.10;;;21.33;;
13868;SDS011;7004;48.206;16.402;2023-01-24T10:58:36;32.80;;;20.33;;
13868;SDS011;7004;48.206;16.402;2023-01-24T11:01:20;36.13;;;20.87;;
13868;SDS011;7004;48.206;16.402;2023-01-24T11:03:49;37.30;;;20.77;;
13868;SDS011;7004;48.206;16.402;2023-01-24T11:11:55;38.17;;;20.87;;
13868;SDS011;7004;48.206;16.402;2023-01-24T11:14:24;32.80;;;20.03;;
13868;SDS011;7004;48.206;16.402;2023-01-24T11:16:58;35.37;;;21.03;;
13868;SDS011;7004;48.206;16.402;2023-01-24T11:19:29;36.13;;;21.47;;
13868;SDS011;7004;48.206;16.402;2023-01-24T11:22:21;35.00;;;20.87;;
13868;SDS011;7004;48.206;16.402;2023-01-24T11:24:59;32.47;;;19.57;;
13868;SDS011;7004;48.206;16.402;2023-01-24T11:27:28;31.37;;;19.20;;
13868;SDS011;7004;48.206;16.402;2023-01-24T11:30:15;28.43;;;18.17;;
13868;SDS011;7004;48.206;16.402;2023-01-24T11:32:52;39.53;;;21.47;;
13868;SDS011;7004;48.206;16.402;2023-01-24T11:36:04;33.70;;;19.57;;
13868;SDS011;7004;48.206;16.402;2023-01-24T11:39:07;31.53;;;19.73;;
13868;SDS011;7004;48.206;16.402;2023-01-24T11:41:54;30.80;;;18.87;;
13868;SDS011;7004;48.206;16.402;2023-01-24T11:44:44;27.70;;;17.27;;
13868;SDS011;7004;48.206;16.402;2023-01-24T11:47:21;30.13;;;19.17;;
13868;SDS011;7004;48.206;16.402;2023-01-24T12:01:44;28.93;;;17.63;;
13868;SDS011;7004;48.206;16.402;2023-01-24T12:11:02;26.40;;;17.53;;
13868;SDS011;7004;48.206;16.402;2023-01-24T12:13:54;27.03;;;16.83;;
13868;SDS011;7004;48.206;16.402;2023-01-24T12:22:22;35.13;;;21.17;;
13868;SDS011;7004;48.206;16.402;2023-01-24T12:24:54;36.07;;;23.13;;
13868;SDS011;7004;48.206;16.402;2023-01-24T12:27:32;26.13;;;16.40;;
13868;SDS011;7004;48.206;16.402;2023-01-24T12:30:47;25.57;;;16.90;;
13868;SDS011;7004;48.206;16.402;2023-01-24T12:33:11;26.33;;;16.70;;
13868;SDS011;7004;48.206;16.402;2023-01-24T12:36:02;26.83;;;16.90;;
13868;SDS011;7004;48.206;16.402;2023-01-24T12:38:46;29.90;;;16.47;;
13868;SDS011;7004;48.206;16.402;2023-01-24T12:41:33;27.50;;;16.43;;
13868;SDS011;7004;48.206;16.402;2023-01-24T12:47:11;22.43;;;15.20;;
13868;SDS011;7004;48.206;16.402;2023-01-24T12:50:01;22.47;;;15.17;;
13868;SDS011;7004;48.206;16.402;2023-01-24T12:55:25;25.93;;;15.57;;
13868;SDS011;7004;48.206;16.402;2023-01-24T12:58:10;26.93;;;16.73;;
13868;SDS011;7004;48.206;16.402;2023-01-24T13:01:07;29.13;;;16.50;;
13868;SDS011;7004;48.206;16.402;2023-01-24T13:08:47;28.43;;;16.60;;
13868;SDS011;7004;48.206;16.402;2023-01-24T13:11:29;27.37;;;16.13;;
13868;SDS011;7004;48.206;16.402;2023-01-24T13:14:17;26.97;;;15.90;;
13868;SDS011;7004;48.206;16.402;2023-01-24T13:23:18;26.07;;;16.47;;
13868;SDS011;7004;48.206;16.402;2023-01-24T13:34:33;27.63;;;16.53;;
13868;SDS011;7004;48.206;16.402;2023-01-24T13:37:06;26.70;;;16.50;;
13868;SDS011;7004;48.206;16.402;2023-01-24T13:40:03;29.33;;;17.67;;
13868;SDS011;7004;48.206;16.402;2023-01-24T13:42:35;27.60;;;16.53;;
13868;SDS011;7004;48.206;16.402;2023-01-24T13:47:49;28.73;;;16.73;;
13868;SDS011;7004;48.206;16.402;2023-01-24T13:50:19;25.67;;;15.37;;
13868;SDS011;7004;48.206;16.402;2023-01-24T13:52:47;26.67;;;16.93;;
13868;SDS011;7004;48.206;16.402;2023-01-24T14:00:34;28.30;;;17.33;;
13868;SDS011;7004;48.206;16.402;2023-01-24T14:24:35;26.63;;;16.17;;
13868;SDS011;7004;48.206;16.402;2023-01-24T14:27:24;24.20;;;15.73;;
13868;SDS011;7004;48.206;16.402;2023-01-24T14:33:03;26.33;;;16.27;;
13868;SDS011;7004;48.206;16.402;2023-01-24T14:42:00;25.23;;;15.57;;
13868;SDS011;7004;48.206;16.402;2023-01-24T14:44:53;27.37;;;16.03;;
13868;SDS011;7004;48.206;16.402;2023-01-24T14:47:22;23.47;;;14.93;;
13868;SDS011;7004;48.206;16.402;2023-01-24T14:49:57;28.27;;;15.57;;
13868;SDS011;7004;48.206;16.402;2023-01-24T14:52:29;22.00;;;14.90;;
13868;SDS011;7004;48.206;16.402;2023-01-24T14:54:58;28.07;;;15.97;;
13868;SDS011;7004;48.206;16.402;2023-01-24T14:57:53;23.43;;;14.93;;
13868;SDS011;7004;48.206;16.402;2023-01-24T15:00:20;24.37;;;14.73;;
13868;SDS011;7004;48.206;16.402;2023-01-24T15:07:51;25.57;;;15.77;;
13868;SDS011;7004;48.206;16.402;2023-01-24T15:10:21;23.13;;;14.87;;
13868;SDS011;7004;48.206;16.402;2023-01-24T15:12:54;26.30;;;15.57;;
13868;SDS011;7004;48.206;16.402;2023-01-24T15:15:25;24.97;;;15.30;;
13868;SDS011;7004;48.206;16.402;2023-01-24T15:17:53;24.83;;;16.37;;
13868;SDS011;7004;48.206;16.402;2023-01-24T15:20:32;23.07;;;15.10;;
13868;SDS011;7004;48.206;16.402;2023-01-24T15:22:59;22.73;;;15.00;;
13868;SDS011;7004;48.206;16.402;2023-01-24T15:25:35;22.13;;;14.70;;
13868;SDS011;7004;48.206;16.402;2023-01-24T15:28:16;23.23;;;14.30;;
13868;SDS011;7004;48.206;16.402;2023-01-24T15:30:54;22.37;;;14.40;;
13868;SDS011;7004;48.206;16.402;2023-01-24T15:33:23;22.47;;;13.93;;
13868;SDS011;7004;48.206;16.402;2023-01-24T15:35:51;25.60;;;14.13;;
13868;SDS011;7004;48.206;16.402;2023-01-24T15:40:57;23.43;;;14.20;;
13868;SDS011;7004;48.206;16.402;2023-01-24T15:43:36;23.40;;;14.33;;
13868;SDS011;7004;48.206;16.402;2023-01-24T15:49:19;21.83;;;14.33;;
13868;SDS011;7004;48.206;16.402;2023-01-24T15:54:34;23.23;;;15.23;;
13868;SDS011;7004;48.206;16.402;2023-01-24T15:57:27;23.43;;;14.80;;
13868;SDS011;7004;48.206;16.402;2023-01-24T15:59:52;23.40;;;14.27;;
13868;SDS011;7004;48.206;16.402;2023-01-24T16:02:33;23.50;;;15.47;;
13868;SDS011;7004;48.206;16.402;2023-01-24T16:05:00;25.77;;;15.77;;
13868;SDS011;7004;48.206;16.402;2023-01-24T16:07:26;25.73;;;16.27;;
13868;SDS011;7004;48.206;16.402;2023-01-24T16:09:53;22.60;;;14.57;;
13868;SDS011;7004;48.206;16.402;2023-01-24T16:12:22;23.07;;;15.50;;
13868;SDS011;7004;48.206;16.402;2023-01-24T16:14:50;23.90;;;15.00;;
13868;SDS011;7004;48.206;16.402;2023-01-24T16:17:19;24.87;;;15.53;;
13868;SDS011;7004;48.206;16.402;2023-01-24T16:19:48;26.03;;;14.53;;
13868;SDS011;7004;48.206;16.402;2023-01-24T16:22:14;24.07;;;15.10;;
13868;SDS011;7004;48.206;16.402;2023-01-24T16:24:41;23.03;;;14.17;;
13868;SDS011;7004;48.206;16.402;2023-01-24T16:27:08;23.77;;;15.73;;
13868;SDS011;7004;48.206;16.402;2023-01-24T16:29:39;21.30;;;13.93;;
13868;SDS011;7004;48.206;16.402;2023-01-24T16:32:15;21.37;;;14.33;;
13868;SDS011;7004;48.206;16.402;2023-01-24T16:34:48;22.43;;;15.17;;
13868;SDS011;7004;48.206;16.402;2023-01-24T16:37:15;23.30;;;14.00;;
13868;SDS011;7004;48.206;16.402;2023-01-24T16:39:43;23.03;;;13.80;;
13868;SDS011;7004;48.206;16.402;2023-01-24T16:42:14;26.43;;;15.57;;
13868;SDS011;7004;48.206;16.402;2023-01-24T16:44:44;24.10;;;13.90;;
13868;SDS011;7004;48.206;16.402;2023-01-24T16:47:26;23.73;;;15.70;;
13868;SDS011;7004;48.206;16.402;2023-01-24T16:49:54;24.27;;;14.70;;
13868;SDS011;7004;48.206;16.402;2023-01-24T16:52:23;27.77;;;15.83;;
13868;SDS011;7004;48.206;16.402;2023-01-24T16:54:52;25.50;;;15.73;;
13868;SDS011;7004;48.206;16.402;2023-01-24T16:57:18;22.77;;;14.70;;
13868;SDS011;7004;48.206;16.402;2023-01-24T16:59:45;25.63;;;15.03;;
13868;SDS011;7004;48.206;16.402;2023-01-24T17:02:14;23.13;;;14.17;;
13868;SDS011;7004;48.206;16.402;2023-01-24T17:04:41;23.47;;;14.93;;
13868;SDS011;7004;48.206;16.402;2023-01-24T17:07:07;25.97;;;14.77;;
13868;SDS011;7004;48.206;16.402;2023-01-24T17:09:33;22.77;;;14.80;;